South Shore, Missouri
Current Conditions -  °F | °C
As of 2:54 AM on Monday 20 Oct 2014 (Local Time) from KSET Reporting Station
Clear Clear  
Wind Chill: 54°   Ceiling: Unl
Heat Index: 54°   Visibility: 10mi
Dew Point: 48°   Wind: 5mph
Humidity: 80%   Direction: 260°W
Pressure: 29.99"   Gusts: NA
Location:  38.8615°N, 90.4548°W
Report Text: KSET 200754Z AUTO 26004KT 10SM CLR 12/09 A2999 RMK AO1 SLP152 T01220089 $
Loading
Personal Weather Stations






























Interactive Weather Map
Tropical Storm Tracking
New forecast layout! Learn more

10-Day Weather Forecast

Advertisements
Track Severe Weather on mobile